Time;durP1;ratioP1;P1;durP2;ratioP2;P2;SDS_P1;SDS_P2;PMS_P1;PMS_P2;Temp;Humidity;BMP_temperature;BMP_pressure;BME280_temperature;BME280_humidity;BME280_pressure;Samples;Min_cycle;Max_cycle;Signal;HPM_P1;HPM_P2
2022/05/07 00:02:02;;;;;;;;;;;;;;;12.06;87.38;97097.87;1718415;83;20109;-82
2022/05/07 00:04:28;;;;;;;;;;;;;;;12.06;87.36;97096.57;1667162;84;20330;-82
2022/05/07 00:06:54;;;;;;;;;;;;;;;12.05;87.24;97099.67;1683503;84;20112;-82
2022/05/07 00:09:20;;;;;;;;;;;;;;;12.05;87.21;97094.45;1676998;84;20128;-82
2022/05/07 00:11:47;;;;;;;;;;;;;;;12.06;87.22;97094.78;1675935;85;20156;-82
2022/05/07 00:14:13;;;;;;;;;;;;;;;12.08;87.22;97095.91;1678519;84;20182;-82
2022/05/07 00:19:22;;;;;;;;;;;;;;;12.03;87.28;97093.80;1681688;84;20337;-82
2022/05/07 00:21:48;;;;;;;;;;;;;;;11.97;87.47;97085.38;1680796;84;20337;-83
2022/05/07 00:24:14;;;;;;;;;;;;;;;11.94;87.60;97087.03;1678651;84;20149;-82
2022/05/07 00:26:40;;;;;;;;;;;;;;;11.90;87.64;97087.06;1676949;84;20119;-82
2022/05/07 00:29:05;;;;;;;;;;;;;;;11.89;87.72;97081.55;1676201;84;20095;-82
2022/05/07 00:31:31;;;;;;;;;;;;;;;11.89;87.73;97074.55;1680757;84;20377;-82
2022/05/07 00:33:56;;;;;;;;;;;;;;;11.91;87.88;97068.66;1674370;84;20161;-82
2022/05/07 00:36:22;;;;;;;;;;;;;;;11.96;87.88;97073.34;1680137;85;20116;-82
2022/05/07 00:38:48;;;;;;;;;;;;;;;11.98;87.76;97072.19;1680254;84;20156;-83
2022/05/07 00:41:13;;;;;;;;;;;;;;;11.99;87.80;97072.50;1678531;85;20124;-83
2022/05/07 00:43:42;;;;;;;;;;;;;;;12.00;87.94;97067.61;1679896;84;20444;-83
2022/05/07 00:46:07;;;;;;;;;;;;;;;12.02;88.00;97065.64;1673104;84;20374;-82
2022/05/07 00:48:33;;;;;;;;;;;;;;;12.05;87.98;97070.20;1684445;84;20183;-83
2022/05/07 00:53:45;;;;;;;;;;;;;;;12.07;87.86;97074.75;1679093;84;20365;-82
2022/05/07 00:56:10;;;;;;;;;;;;;;;12.08;87.77;97071.97;1675611;84;20190;-82
2022/05/07 00:58:36;;;;;;;;;;;;;;;12.10;87.80;97075.20;1678756;84;20349;-82
2022/05/07 01:01:01;;;;;;;;;;;;;;;12.13;87.83;97071.44;1664796;84;20115;-83
2022/05/07 01:03:27;;;;;;;;;;;;;;;12.12;87.82;97075.84;1683068;84;20116;-83
2022/05/07 01:05:53;;;;;;;;;;;;;;;12.13;87.85;97069.64;1681450;84;20187;-82
2022/05/07 01:08:20;;;;;;;;;;;;;;;12.13;87.83;97071.44;1674210;84;20171;-82
2022/05/07 01:10:47;;;;;;;;;;;;;;;12.13;87.70;97073.55;1680008;84;20183;-83
2022/05/07 01:13:13;;;;;;;;;;;;;;;12.15;87.61;97066.86;1673074;84;20170;-82
2022/05/07 01:15:43;;;;;;;;;;;;;;;12.16;87.43;97073.19;1681787;84;20139;-83
2022/05/07 01:18:10;;;;;;;;;;;;;;;12.18;87.34;97071.71;1673084;84;20128;-83
2022/05/07 01:20:37;;;;;;;;;;;;;;;12.18;87.19;97070.41;1670428;84;20165;-82
2022/05/07 01:23:02;;;;;;;;;;;;;;;12.17;87.23;97069.59;1670971;84;20472;-83
2022/05/07 01:25:28;;;;;;;;;;;;;;;12.14;87.16;97069.95;1681604;84;20112;-82
2022/05/07 01:27:53;;;;;;;;;;;;;;;12.10;87.25;97069.19;1678779;84;20093;-82
2022/05/07 01:30:19;;;;;;;;;;;;;;;12.07;87.24;97064.33;1681152;84;20194;-83
2022/05/07 01:32:45;;;;;;;;;;;;;;;12.06;87.21;97062.70;1678586;84;20088;-83
2022/05/07 01:35:10;;;;;;;;;;;;;;;12.07;87.19;97061.72;1673861;84;20124;-83
2022/05/07 01:37:36;;;;;;;;;;;;;;;12.09;87.07;97071.47;1673413;84;20133;-83
2022/05/07 01:40:02;;;;;;;;;;;;;;;12.07;86.99;97069.54;1678351;84;20111;-82
2022/05/07 01:42:27;;;;;;;;;;;;;;;12.06;86.86;97070.03;1677497;84;20126;-83
2022/05/07 01:44:53;;;;;;;;;;;;;;;12.06;86.86;97071.33;1675330;84;20404;-83
2022/05/07 01:50:03;;;;;;;;;;;;;;;12.07;87.27;97064.33;1676223;84;20108;-83
2022/05/07 01:52:29;;;;;;;;;;;;;;;12.10;87.45;97071.79;1672429;84;20119;-82
2022/05/07 01:54:55;;;;;;;;;;;;;;;12.11;87.42;97070.31;1677435;84;20100;-83
2022/05/07 01:57:20;;;;;;;;;;;;;;;12.10;87.44;97069.99;1675325;84;20120;-83
2022/05/07 01:59:46;;;;;;;;;;;;;;;12.13;87.48;97070.94;1675810;84;20139;-83
2022/05/07 02:02:11;;;;;;;;;;;;;;;12.16;87.20;97065.87;1679350;84;20372;-82
2022/05/07 02:04:37;;;;;;;;;;;;;;;12.18;87.14;97065.20;1679113;84;20219;-82
2022/05/07 02:07:03;;;;;;;;;;;;;;;12.18;87.25;97059.98;1682448;84;20324;-82
2022/05/07 02:09:28;;;;;;;;;;;;;;;12.18;87.14;97060.80;1681843;84;20128;-82
2022/05/07 02:11:54;;;;;;;;;;;;;;;12.19;87.22;97062.41;1677792;84;20139;-82
2022/05/07 02:14:20;;;;;;;;;;;;;;;12.19;87.13;97068.12;1678880;84;20172;-82
2022/05/07 02:16:45;;;;;;;;;;;;;;;12.17;87.25;97066.19;1679001;84;20129;-82
2022/05/07 02:19:11;;;;;;;;;;;;;;;12.18;87.22;97070.41;1671737;84;20164;-82
2022/05/07 02:21:36;;;;;;;;;;;;;;;12.17;87.23;97066.19;1676851;84;20222;-82
2022/05/07 02:24:02;;;;;;;;;;;;;;;12.18;87.27;97069.91;1683327;84;20151;-83
2022/05/07 02:26:28;;;;;;;;;;;;;;;12.17;87.28;97070.91;1678292;84;20100;-82
2022/05/07 02:28:54;;;;;;;;;;;;;;;12.17;87.40;97066.99;1683446;84;20121;-82
2022/05/07 02:31:20;;;;;;;;;;;;;;;12.17;87.45;97070.91;1669727;84;20140;-82
2022/05/07 02:33:45;;;;;;;;;;;;;;;12.17;87.48;97071.40;1676597;84;20107;-82
2022/05/07 02:36:11;;;;;;;;;;;;;;;12.15;87.45;97065.06;1678815;84;20451;-82
2022/05/07 02:38:38;;;;;;;;;;;;;;;12.15;87.60;97069.46;1679526;84;20097;-82
2022/05/07 02:43:48;;;;;;;;;;;;;;;12.14;87.38;97061.33;1669097;84;20104;-82
2022/05/07 02:46:14;;;;;;;;;;;;;;;12.17;87.26;97060.48;1678276;84;20115;-82
2022/05/07 02:48:44;;;;;;;;;;;;;;;12.21;87.20;97064.88;1679967;84;20158;-82
2022/05/07 02:51:08;;;;;;;;;;;;;;;12.23;87.25;97064.20;1675834;84;20116;-82
2022/05/07 02:53:33;;;;;;;;;;;;;;;12.24;87.26;97068.42;1679343;84;20092;-82
2022/05/07 02:55:59;;;;;;;;;;;;;;;12.24;87.23;97068.42;1680602;84;20175;-82
2022/05/07 02:58:25;;;;;;;;;;;;;;;12.21;87.16;97065.69;1674546;85;20116;-82
2022/05/07 03:00:50;;;;;;;;;;;;;;;12.19;87.14;97062.41;1676683;84;20376;-82
2022/05/07 03:03:16;;;;;;;;;;;;;;;12.19;87.06;97066.81;1677289;84;20270;-82
2022/05/07 03:05:42;;;;;;;;;;;;;;;12.21;86.93;97063.57;1674057;84;20144;-82
2022/05/07 03:08:07;;;;;;;;;;;;;;;12.23;86.96;97068.92;1670550;84;20100;-82
2022/05/07 03:10:33;;;;;;;;;;;;;;;12.26;86.96;97064.66;1670746;84;20216;-82
2022/05/07 03:13:00;;;;;;;;;;;;;;;12.27;87.01;97064.97;1675154;84;20160;-82
2022/05/07 03:15:25;;;;;;;;;;;;;;;12.28;86.97;97064.48;1671654;84;20092;-83
2022/05/07 03:17:51;;;;;;;;;;;;;;;12.27;86.96;97068.88;1670365;84;20127;-82
2022/05/07 03:20:17;;;;;;;;;;;;;;;12.26;86.90;97065.95;1673732;84;20100;-83
2022/05/07 03:22:44;;;;;;;;;;;;;;;12.24;86.65;97060.12;1671606;84;20080;-83
2022/05/07 03:25:10;;;;;;;;;;;;;;;12.23;86.56;97067.62;1672074;84;20093;-82
2022/05/07 03:27:36;;;;;;;;;;;;;;;12.21;86.45;97072.20;1669698;84;20116;-83
2022/05/07 03:30:02;;;;;;;;;;;;;;;12.20;86.36;97064.53;1668658;84;20164;-82
2022/05/07 03:32:27;;;;;;;;;;;;;;;12.17;86.20;97064.88;1668425;84;20162;-82
2022/05/07 03:34:53;;;;;;;;;;;;;;;12.14;86.04;97063.94;1671860;84;20184;-82
2022/05/07 03:37:19;;;;;;;;;;;;;;;12.09;86.01;97070.17;1675047;84;20124;-83
2022/05/07 03:39:44;;;;;;;;;;;;;;;12.05;86.04;97066.30;1673640;84;20117;-82
2022/05/07 03:42:10;;;;;;;;;;;;;;;12.00;86.13;97069.41;1672330;84;20169;-82
2022/05/07 03:44:37;;;;;;;;;;;;;;;11.97;86.07;97061.45;1672739;84;20152;-82
2022/05/07 03:47:03;;;;;;;;;;;;;;;11.96;86.03;97065.04;1670851;84;20096;-82
2022/05/07 03:49:29;;;;;;;;;;;;;;;11.97;85.85;97065.84;1664603;84;20099;-83
2022/05/07 03:54:38;;;;;;;;;;;;;;;11.98;85.29;97065.67;1669844;84;20139;-82
2022/05/07 03:57:04;;;;;;;;;;;;;;;11.97;85.14;97069.75;1673338;84;20147;-82
2022/05/07 03:59:30;;;;;;;;;;;;;;;11.96;85.12;97070.73;1666952;84;20092;-82
2022/05/07 04:01:55;;;;;;;;;;;;;;;11.94;84.95;97068.31;1670027;84;20186;-82
2022/05/07 04:04:21;;;;;;;;;;;;;;;11.91;85.03;97068.66;1670979;84;20144;-82
2022/05/07 04:06:46;;;;;;;;;;;;;;;11.89;85.16;97068.03;1682398;84;20144;-82
2022/05/07 04:09:12;;;;;;;;;;;;;;;11.87;85.22;97069.97;1688732;84;20174;-83
2022/05/07 04:11:38;;;;;;;;;;;;;;;11.87;85.26;97076.97;1684936;84;20395;-83
2022/05/07 04:14:04;;;;;;;;;;;;;;;11.89;85.24;97075.84;1685738;84;20095;-83
2022/05/07 04:16:29;;;;;;;;;;;;;;;11.93;85.23;97082.81;1689137;84;20107;-83
2022/05/07 04:18:55;;;;;;;;;;;;;;;11.97;85.40;97074.47;1686494;84;20331;-82
2022/05/07 04:21:22;;;;;;;;;;;;;;;12.02;85.49;97082.56;1699522;83;20119;-83
2022/05/07 04:23:48;;;;;;;;;;;;;;;12.06;85.75;97074.43;1717814;82;20192;-82
2022/05/07 04:26:14;;;;;;;;;;;;;;;12.09;85.80;97073.58;1694937;84;20156;-82
2022/05/07 04:28:40;;;;;;;;;;;;;;;12.10;85.73;97080.41;1721807;82;20218;-82
2022/05/07 04:31:05;;;;;;;;;;;;;;;12.11;85.90;97076.02;1689233;84;20144;-83
2022/05/07 04:33:31;;;;;;;;;;;;;;;12.13;85.92;97077.95;1688204;84;20170;-83
2022/05/07 04:35:56;;;;;;;;;;;;;;;12.16;85.99;97077.59;1715974;82;20182;-82
2022/05/07 04:38:22;;;;;;;;;;;;;;;12.23;86.26;97078.53;1700005;82;20312;-83
2022/05/07 04:40:48;;;;;;;;;;;;;;;12.27;86.35;97074.59;1722214;82;20229;-82
2022/05/07 04:43:15;;;;;;;;;;;;;;;12.33;86.70;97076.48;1725233;82;20126;-82
2022/05/07 04:45:41;;;;;;;;;;;;;;;12.37;86.81;97075.66;1703855;83;20129;-83
2022/05/07 04:48:07;;;;;;;;;;;;;;;12.38;86.77;97070.27;1729300;82;20087;-83
2022/05/07 04:50:32;;;;;;;;;;;;;;;12.49;86.51;97075.53;1728135;82;20437;-83
2022/05/07 04:52:58;;;;;;;;;;;;;;;12.54;86.06;97076.64;1728452;82;20082;-83
2022/05/07 04:55:24;;;;;;;;;;;;;;;12.61;85.90;97074.13;1723702;82;20376;-83
2022/05/07 04:57:50;;;;;;;;;;;;;;;12.67;85.98;97078.62;1723134;82;20163;-82
2022/05/07 05:00:16;;;;;;;;;;;;;;;12.73;86.17;97077.93;1724469;82;20155;-83
2022/05/07 05:02:43;;;;;;;;;;;;;;;12.77;86.58;97078.38;1717756;82;20117;-83
2022/05/07 05:05:09;;;;;;;;;;;;;;;12.83;87.24;97084.17;1722464;82;20758;-83
2022/05/07 05:07:35;;;;;;;;;;;;;;;12.89;86.99;97085.59;1694503;82;20094;-83
2022/05/07 05:10:02;;;;;;;;;;;;;;;12.99;86.96;97091.83;1681955;85;20144;-83
2022/05/07 05:12:27;;;;;;;;;;;;;;;13.10;86.96;97095.30;1685728;84;20408;-83
2022/05/07 05:15:03;;;;;;;;;;;;;;;13.20;87.05;97093.77;1668513;85;20095;-83
2022/05/07 05:17:29;;;;;;;;;;;;;;;13.29;87.13;97095.78;1669262;85;20370;-83
2022/05/07 05:19:55;;;;;;;;;;;;;;;13.40;87.76;97098.75;1673676;85;20152;-83
2022/05/07 05:22:21;;;;;;;;;;;;;;;13.47;87.75;97102.23;1677508;85;20145;-83
2022/05/07 05:24:49;;;;;;;;;;;;;;;13.52;87.52;97097.80;1673951;85;20115;-83
2022/05/07 05:27:14;;;;;;;;;;;;;;;13.55;87.19;97097.92;1676558;84;20182;-83
2022/05/07 05:29:41;;;;;;;;;;;;;;;13.59;87.30;97101.28;1675143;85;20450;-83
2022/05/07 05:32:07;;;;;;;;;;;;;;;13.60;87.05;97099.48;1670399;85;20109;-83
2022/05/07 05:34:33;;;;;;;;;;;;;;;13.63;86.97;97105.64;1678813;85;20099;-83
2022/05/07 05:36:59;;;;;;;;;;;;;;;13.62;86.42;97102.22;1674057;85;20140;-83
2022/05/07 05:39:24;;;;;;;;;;;;;;;13.65;86.27;97104.95;1677256;85;20409;-83
2022/05/07 05:41:50;;;;;;;;;;;;;;;13.60;85.88;97107.31;1670893;85;20161;-83
2022/05/07 05:44:15;;;;;;;;;;;;;;;13.59;85.91;97110.42;1675002;85;20145;-83
2022/05/07 05:46:41;;;;;;;;;;;;;;;13.62;85.97;97111.36;1672771;85;20173;-84
2022/05/07 05:49:07;;;;;;;;;;;;;;;13.65;85.91;97112.78;1670605;85;20080;-84
2022/05/07 05:51:33;;;;;;;;;;;;;;;13.71;86.22;97115.99;1675046;84;20172;-84
2022/05/07 05:53:58;;;;;;;;;;;;;;;13.75;85.38;97115.44;1685328;85;20151;-84
2022/05/07 05:56:24;;;;;;;;;;;;;;;13.66;85.86;97095.63;1673173;85;20127;-85
2022/05/07 05:58:51;;;;;;;;;;;;;;;13.80;85.97;97118.30;1673037;84;20183;-85
2022/05/07 06:01:16;;;;;;;;;;;;;;;13.80;85.87;97122.71;1680606;84;20174;-83
2022/05/07 06:03:44;;;;;;;;;;;;;;;13.77;86.08;97116.55;1679114;84;20388;-85
2022/05/07 06:06:10;;;;;;;;;;;;;;;13.70;85.87;97118.30;1689492;83;20139;-83
2022/05/07 06:08:36;;;;;;;;;;;;;;;13.59;86.07;97118.75;1693383;84;20148;-83
2022/05/07 06:11:02;;;;;;;;;;;;;;;13.61;86.76;97122.80;1692454;85;20204;-84
2022/05/07 06:13:28;;;;;;;;;;;;;;;13.64;86.51;97123.73;1684353;84;20113;-83
2022/05/07 06:15:54;;;;;;;;;;;;;;;13.65;86.42;97123.23;1735518;82;20347;-81
2022/05/07 06:18:21;;;;;;;;;;;;;;;13.67;87.21;97124.70;1720620;83;20146;-82
2022/05/07 06:20:48;;;;;;;;;;;;;;;13.72;86.69;97129.36;1705382;83;20121;-81
2022/05/07 06:23:14;;;;;;;;;;;;;;;13.76;87.02;97127.50;1708752;82;20172;-82
2022/05/07 06:28:24;;;;;;;;;;;;;;;13.79;87.26;97129.73;1711183;83;20442;-82
2022/05/07 06:30:50;;;;;;;;;;;;;;;13.81;86.51;97134.28;1693514;83;20159;-82
2022/05/07 06:33:16;;;;;;;;;;;;;;;13.78;86.91;97129.43;1702748;83;20177;-81
2022/05/07 06:35:41;;;;;;;;;;;;;;;13.88;87.49;97134.38;1698646;83;20254;-81
2022/05/07 06:38:09;;;;;;;;;;;;;;;14.01;87.80;97136.33;1699139;83;20680;-82
2022/05/07 06:40:37;;;;;;;;;;;;;;;14.13;88.13;97136.13;1707573;83;20103;-81
2022/05/07 06:43:03;;;;;;;;;;;;;;;14.14;86.95;97132.52;1705086;83;20184;-82
2022/05/07 06:45:28;;;;;;;;;;;;;;;14.21;87.53;97133.42;1692634;83;20128;-82
2022/05/07 06:48:08;;;;;;;;;;;;;;;14.28;86.78;97133.47;1697880;83;20135;-82
2022/05/07 06:50:31;;;;;;;;;;;;;;;14.36;86.74;97133.36;1702235;83;20188;-82
2022/05/07 06:52:58;;;;;;;;;;;;;;;14.44;86.61;97134.56;1709655;83;20231;-82
2022/05/07 06:55:24;;;;;;;;;;;;;;;14.52;87.19;97135.75;1702349;83;20334;-82
2022/05/07 06:57:50;;;;;;;;;;;;;;;14.65;87.48;97133.76;1710233;83;20119;-82
2022/05/07 07:00:16;;;;;;;;;;;;;;;14.76;86.82;97132.41;1696295;83;20145;-82
2022/05/07 07:02:42;;;;;;;;;;;;;;;14.86;86.81;97135.52;1706718;84;20182;-82
2022/05/07 07:05:08;;;;;;;;;;;;;;;14.89;85.22;97141.18;1693110;84;20124;-82
2022/05/07 07:07:35;;;;;;;;;;;;;;;14.80;84.08;97141.00;1700139;83;20697;-82
2022/05/07 07:10:00;;;;;;;;;;;;;;;14.67;83.42;97140.41;1705712;83;20175;-82
2022/05/07 07:12:26;;;;;;;;;;;;;;;14.65;84.42;97141.11;1706944;83;20142;-83
2022/05/07 07:14:53;;;;;;;;;;;;;;;14.73;84.98;97147.99;1711380;83;20123;-84
2022/05/07 07:17:18;;;;;;;;;;;;;;;14.77;83.80;97145.80;1715726;83;20125;-83
2022/05/07 07:19:45;;;;;;;;;;;;;;;14.75;84.03;97141.27;1716258;84;20746;-82
2022/05/07 07:22:11;;;;;;;;;;;;;;;14.75;82.91;97145.19;1657665;84;20126;-84
2022/05/07 07:24:36;;;;;;;;;;;;;;;14.78;83.73;97146.92;1701460;84;20147;-83
2022/05/07 07:27:04;;;;;;;;;;;;;;;14.83;84.25;97145.88;1685398;84;20181;-82
2022/05/07 07:29:29;;;;;;;;;;;;;;;14.79;82.63;97143.30;1682338;83;20111;-82
2022/05/07 07:31:55;;;;;;;;;;;;;;;14.83;83.02;97145.06;1696470;84;20317;-83
2022/05/07 07:34:21;;;;;;;;;;;;;;;14.84;81.10;97147.48;1701242;84;20149;-82
2022/05/07 07:36:52;;;;;;;;;;;;;;;14.87;80.00;97151.03;1706535;83;20111;-83
2022/05/07 07:39:18;;;;;;;;;;;;;;;14.88;80.76;97148.72;1703635;83;20098;-83
2022/05/07 07:41:44;;;;;;;;;;;;;;;14.87;81.18;97148.41;1704260;84;20134;-83
2022/05/07 07:44:10;;;;;;;;;;;;;;;14.85;81.16;97151.72;1704902;84;20150;-83
2022/05/07 07:49:20;;;;;;;;;;;;;;;14.84;81.23;97156.64;1702891;84;20126;-82
2022/05/07 07:51:46;;;;;;;;;;;;;;;14.94;81.12;97154.99;1702584;83;20138;-83
2022/05/07 07:54:14;;;;;;;;;;;;;;;14.91;80.63;97154.07;1705290;83;20154;-82
2022/05/07 07:56:42;;;;;;;;;;;;;;;14.85;80.91;97153.03;1677947;84;20249;-82
2022/05/07 07:59:08;;;;;;;;;;;;;;;14.84;80.12;97151.41;1689217;84;20162;-83
2022/05/07 08:01:33;;;;;;;;;;;;;;;14.83;79.25;97153.72;1732121;82;20081;-83
2022/05/07 08:03:59;;;;;;;;;;;;;;;14.83;80.13;97156.84;1688594;83;20123;-83
2022/05/07 08:06:26;;;;;;;;;;;;;;;14.91;80.56;97152.26;1681822;85;20126;-83
2022/05/07 08:11:46;;;;;;;;;;;;;;;15.03;78.30;97160.91;1697593;83;20098;-83
2022/05/07 08:14:13;;;;;;;;;;;;;;;15.02;76.45;97164.02;1693202;84;20341;-82
2022/05/07 08:16:37;;;;;;;;;;;;;;;15.04;76.41;97160.72;1698996;84;20167;-82
2022/05/07 08:19:04;;;;;;;;;;;;;;;15.17;76.63;97163.43;1687948;85;20179;-83
2022/05/07 08:21:29;;;;;;;;;;;;;;;15.30;77.91;97160.91;1687239;85;20120;-83
2022/05/07 08:23:55;;;;;;;;;;;;;;;15.41;77.17;97164.77;1710096;83;20087;-83
2022/05/07 08:26:21;;;;;;;;;;;;;;;15.47;74.94;97170.56;1709136;83;20121;-83
2022/05/07 08:28:47;;;;;;;;;;;;;;;15.45;73.42;97169.12;1709790;83;20119;-83
2022/05/07 08:31:12;;;;;;;;;;;;;;;15.44;73.35;97174.05;1695823;83;20101;-83
2022/05/07 08:33:40;;;;;;;;;;;;;;;15.47;72.14;97170.56;1689892;83;20477;-83
2022/05/07 08:36:06;;;;;;;;;;;;;;;15.41;71.09;97171.31;1707945;83;20103;-83
2022/05/07 08:38:31;;;;;;;;;;;;;;;15.40;70.74;97181.48;1701634;83;20092;-82
2022/05/07 08:40:58;;;;;;;;;;;;;;;15.41;71.64;97184.41;1694241;83;20101;-82
2022/05/07 08:43:24;;;;;;;;;;;;;;;15.37;70.58;97188.92;1705636;83;20438;-83
2022/05/07 08:45:50;;;;;;;;;;;;;;;15.23;67.18;97187.52;1709836;83;20190;-83
2022/05/07 08:48:15;;;;;;;;;;;;;;;15.11;69.51;97186.42;1707488;83;20391;-83
2022/05/07 08:50:41;;;;;;;;;;;;;;;15.04;68.17;97192.12;1708094;82;20128;-83
2022/05/07 08:53:07;;;;;;;;;;;;;;;14.90;70.08;97193.81;1713056;83;20087;-82
2022/05/07 08:55:33;;;;;;;;;;;;;;;14.86;69.79;97194.39;1705883;83;20107;-83
2022/05/07 08:57:58;;;;;;;;;;;;;;;14.89;71.60;97188.78;1710247;84;20151;-83
2022/05/07 09:00:26;;;;;;;;;;;;;;;14.89;70.95;97192.70;1710192;84;20166;-83
2022/05/07 09:02:57;;;;;;;;;;;;;;;14.88;72.05;97190.59;1709979;84;20118;-83
2022/05/07 09:05:26;;;;;;;;;;;;;;;14.89;70.26;97192.20;1710127;84;20111;-83
2022/05/07 09:08:00;;;;;;;;;;;;;;;14.83;69.67;97202.13;1703665;84;20326;-83
2022/05/07 09:10:32;;;;;;;;;;;;;;;14.81;70.67;97199.39;1709863;84;20118;-82
2022/05/07 09:13:13;;;;;;;;;;;;;;;14.80;70.89;97199.86;1712716;84;20118;-83
2022/05/07 09:15:56;;;;;;;;;;;;;;;14.83;71.84;97203.94;1713439;84;20099;-82
2022/05/07 09:18:23;;;;;;;;;;;;;;;14.80;70.81;97206.90;1669696;84;20405;-83
2022/05/07 09:21:16;;;;;;;;;;;;;;;14.73;70.35;97212.59;1713346;84;20087;-83
2022/05/07 09:23:44;;;;;;;;;;;;;;;14.66;71.10;97206.00;1713390;84;20110;-83
2022/05/07 09:26:10;;;;;;;;;;;;;;;14.68;71.65;97210.53;1724762;83;20349;-83
2022/05/07 09:28:38;;;;;;;;;;;;;;;14.74;73.29;97205.85;1697991;85;20131;-83
2022/05/07 09:31:04;;;;;;;;;;;;;;;14.77;71.88;97213.33;1713272;84;20136;-83
2022/05/07 09:33:37;;;;;;;;;;;;;;;14.74;71.72;97208.47;1713383;84;20095;-82
2022/05/07 09:36:11;;;;;;;;;;;;;;;14.67;71.26;97208.42;1712115;84;20403;-83
2022/05/07 09:38:37;;;;;;;;;;;;;;;14.58;70.75;97206.10;1712756;84;20083;-83
2022/05/07 09:41:02;;;;;;;;;;;;;;;14.52;70.05;97208.98;1712584;84;20142;-83
2022/05/07 09:43:29;;;;;;;;;;;;;;;14.46;68.98;97211.50;1711671;83;20083;-83
2022/05/07 09:45:55;;;;;;;;;;;;;;;14.37;69.91;97204.27;1712398;84;20125;-82
2022/05/07 09:48:20;;;;;;;;;;;;;;;14.37;70.14;97205.57;1712511;84;20415;-83
2022/05/07 09:50:46;;;;;;;;;;;;;;;14.40;70.90;97206.00;1713412;83;20095;-83
2022/05/07 09:58:45;;;;;;;;;;;;;;;14.42;69.34;97200.09;1713277;84;20103;-83
2022/05/07 10:01:30;;;;;;;;;;;;;;;14.45;70.22;97205.97;1713174;84;20115;-83
2022/05/07 10:04:11;;;;;;;;;;;;;;;14.50;69.68;97197.09;1724201;83;20259;-82
2022/05/07 10:06:47;;;;;;;;;;;;;;;14.51;69.85;97207.36;1666629;85;20126;-83
2022/05/07 10:09:42;;;;;;;;;;;;;;;14.51;70.28;97203.94;1721824;82;20102;-83
2022/05/07 10:12:08;;;;;;;;;;;;;;;14.52;69.73;97200.32;1707593;83;20144;-83
2022/05/07 10:14:33;;;;;;;;;;;;;;;14.52;71.35;97204.24;1682867;85;20149;-82
2022/05/07 10:17:03;;;;;;;;;;;;;;;14.57;70.52;97208.41;1697276;85;20158;-83
2022/05/07 10:19:39;;;;;;;;;;;;;;;14.63;72.07;97208.96;1713526;83;20326;-83
2022/05/07 10:22:26;;;;;;;;;;;;;;;14.68;72.01;97204.81;1726292;83;20089;-83
2022/05/07 10:25:05;;;;;;;;;;;;;;;14.76;72.18;97209.59;1696654;85;20091;-82
2022/05/07 10:27:44;;;;;;;;;;;;;;;14.76;71.18;97206.97;1692641;85;20134;-83
2022/05/07 10:30:15;;;;;;;;;;;;;;;14.72;71.64;97209.16;1688661;83;20120;-83
2022/05/07 10:32:58;;;;;;;;;;;;;;;14.74;73.48;97205.85;1688283;83;20172;-83
2022/05/07 10:35:53;;;;;;;;;;;;;;;14.79;73.66;97212.63;1689671;83;20112;-82
2022/05/07 10:38:31;;;;;;;;;;;;;;;14.83;73.36;97206.55;1716428;82;20161;-83
2022/05/07 10:41:04;;;;;;;;;;;;;;;14.86;73.63;97208.28;1695247;85;20088;-82
2022/05/07 10:43:37;;;;;;;;;;;;;;;14.90;73.20;97203.48;1683211;83;20118;-83
2022/05/07 10:46:14;;;;;;;;;;;;;;;14.90;71.65;97208.21;1695458;85;20134;-82
2022/05/07 10:48:45;;;;;;;;;;;;;;;14.95;72.28;97208.45;1698359;85;20115;-82
2022/05/07 10:51:21;;;;;;;;;;;;;;;14.99;72.95;97206.28;1703219;84;20151;-82
2022/05/07 10:53:49;;;;;;;;;;;;;;;15.04;74.18;97202.59;1662199;84;21923;-82
2022/05/07 10:56:16;;;;;;;;;;;;;;;15.09;74.89;97201.52;1700591;82;20162;-82
2022/05/07 10:58:50;;;;;;;;;;;;;;;15.12;74.31;97202.94;1703392;84;20188;-82
2022/05/07 11:01:17;;;;;;;;;;;;;;;15.12;74.88;97195.89;1724808;83;20125;-81
2022/05/07 11:03:43;;;;;;;;;;;;;;;15.11;75.50;97183.80;1734400;82;20111;-82
2022/05/07 11:06:09;;;;;;;;;;;;;;;15.19;76.26;97198.58;1678379;84;20155;-82
2022/05/07 11:08:46;;;;;;;;;;;;;;;15.18;76.78;97191.22;1684106;84;20094;-82
2022/05/07 11:11:12;;;;;;;;;;;;;;;15.18;76.99;97191.22;1706059;84;20090;-82
2022/05/07 11:13:46;;;;;;;;;;;;;;;15.17;76.64;97191.41;1705601;84;20327;-81
2022/05/07 11:16:11;;;;;;;;;;;;;;;15.15;76.54;97196.84;1707423;84;20146;-81
2022/05/07 11:18:40;;;;;;;;;;;;;;;15.18;77.08;97187.80;1705994;84;20110;-81
2022/05/07 11:21:04;;;;;;;;;;;;;;;15.22;77.25;97187.22;1705883;84;20090;-81
2022/05/07 11:23:35;;;;;;;;;;;;;;;15.29;76.97;97187.25;1706086;84;20130;-81
2022/05/07 11:26:11;;;;;;;;;;;;;;;15.34;77.44;97181.46;1705757;84;20126;-81
2022/05/07 11:28:39;;;;;;;;;;;;;;;15.39;76.49;97178.56;1705144;84;20114;-81
2022/05/07 11:31:04;;;;;;;;;;;;;;;15.46;76.40;97170.77;1705990;84;20177;-81
2022/05/07 11:33:30;;;;;;;;;;;;;;;15.44;77.41;97164.38;1706305;84;20174;-81
2022/05/07 11:36:07;;;;;;;;;;;;;;;15.44;76.64;97161.77;1706247;84;20087;-81
2022/05/07 11:38:36;;;;;;;;;;;;;;;15.47;77.10;97159.28;1665696;85;20168;-81
2022/05/07 11:41:12;;;;;;;;;;;;;;;15.41;75.90;97151.68;1688294;85;20140;-81
2022/05/07 11:46:22;;;;;;;;;;;;;;;15.37;75.03;97154.38;1687820;85;20088;-81
2022/05/07 11:48:48;;;;;;;;;;;;;;;15.35;74.86;97162.12;1687720;85;20336;-81
2022/05/07 11:51:25;;;;;;;;;;;;;;;15.21;74.44;97163.85;1687183;85;20084;-81
2022/05/07 11:53:51;;;;;;;;;;;;;;;15.17;75.40;97158.70;1688861;83;20143;-81
2022/05/07 11:56:17;;;;;;;;;;;;;;;15.15;74.75;97165.94;1717510;83;20094;-81
2022/05/07 11:58:46;;;;;;;;;;;;;;;15.07;75.58;97164.75;1685594;85;20131;-81
2022/05/07 12:01:21;;;;;;;;;;;;;;;15.09;77.75;97158.83;1682766;84;20157;-80
2022/05/07 12:03:48;;;;;;;;;;;;;;;15.11;77.58;97151.09;1692361;84;20088;-80
2022/05/07 12:06:26;;;;;;;;;;;;;;;15.16;78.06;97147.92;1722961;83;20165;-81
2022/05/07 12:08:52;;;;;;;;;;;;;;;15.21;78.40;97147.64;1726722;83;20108;-81
2022/05/07 12:11:18;;;;;;;;;;;;;;;15.27;78.33;97139.01;1699836;84;20304;-80
2022/05/07 12:13:45;;;;;;;;;;;;;;;15.34;79.10;97139.06;1693514;84;20100;-81
2022/05/07 12:18:55;;;;;;;;;;;;;;;15.43;78.32;97134.46;1671805;86;20105;-81
2022/05/07 12:29:48;;;;;;;;;;;;;;;15.49;78.49;97135.83;1686343;84;20376;-81
2022/05/07 12:32:01;;;;;;;;;;;;;;;15.68;76.01;97129.08;1679594;85;20132;-81
2022/05/07 12:34:27;;;;;;;;;;;;;;;15.71;77.14;97118.20;1680116;85;20184;-81
2022/05/07 12:36:52;;;;;;;;;;;;;;;15.59;76.33;97102.73;1655114;85;20096;-81
2022/05/07 12:39:18;;;;;;;;;;;;;;;15.54;77.45;97107.73;1681295;85;20388;-81
2022/05/07 12:41:44;;;;;;;;;;;;;;;15.52;77.87;97099.27;1681369;85;20221;-81
2022/05/07 12:44:11;;;;;;;;;;;;;;;15.55;78.31;97092.31;1680513;85;20131;-81
2022/05/07 12:46:36;;;;;;;;;;;;;;;15.59;77.30;97095.69;1680801;85;20115;-81
2022/05/07 12:49:02;;;;;;;;;;;;;;;15.63;77.11;97100.56;1681216;85;20097;-81
2022/05/07 12:51:28;;;;;;;;;;;;;;;15.74;78.18;97102.59;1681301;85;20132;-81
2022/05/07 12:53:54;;;;;;;;;;;;;;;15.76;76.17;97110.55;1683471;84;20480;-80
2022/05/07 12:56:19;;;;;;;;;;;;;;;15.68;75.12;97109.44;1679567;85;20172;-81
2022/05/07 12:58:46;;;;;;;;;;;;;;;15.67;75.78;97106.52;1711065;83;20177;-81
2022/05/07 13:01:12;;;;;;;;;;;;;;;15.67;76.34;97104.39;1709773;82;20169;-80
2022/05/07 13:03:38;;;;;;;;;;;;;;;15.57;75.00;97112.57;1721829;83;20141;-81
2022/05/07 13:06:04;;;;;;;;;;;;;;;15.43;74.67;97107.77;1704323;82;20112;-80
2022/05/07 13:08:30;;;;;;;;;;;;;;;15.39;76.03;97106.55;1721595;83;20469;-80
2022/05/07 13:10:56;;;;;;;;;;;;;;;15.33;76.81;97107.34;1700988;84;20078;-80
2022/05/07 13:13:23;;;;;;;;;;;;;;;15.38;76.31;97106.75;1691963;85;20132;-81
2022/05/07 13:15:49;;;;;;;;;;;;;;;15.46;76.36;97102.67;1692153;84;20118;-81
2022/05/07 13:18:17;;;;;;;;;;;;;;;15.59;77.05;97103.54;1725338;82;20134;-81
2022/05/07 13:20:42;;;;;;;;;;;;;;;15.71;75.88;97095.13;1718355;83;20109;-81
2022/05/07 13:23:08;;;;;;;;;;;;;;;15.81;76.19;97086.41;1716589;84;20109;-81
2022/05/07 13:25:33;;;;;;;;;;;;;;;15.94;76.14;97082.48;1705373;84;20157;-81
2022/05/07 13:27:59;;;;;;;;;;;;;;;15.99;75.91;97081.91;1692119;85;20158;-81
2022/05/07 13:30:25;;;;;;;;;;;;;;;16.09;77.51;97077.88;1709888;84;20312;-81